createdAt,value
2023-02-18T00:01:40.482Z,83.70
2023-02-18T00:04:09.705Z,84.00
2023-02-18T00:06:38.997Z,84.43
2023-02-18T00:09:09.104Z,85.19
2023-02-18T00:11:38.653Z,85.67
2023-02-18T00:14:12.126Z,85.65
2023-02-18T00:16:41.538Z,85.71
2023-02-18T00:19:13.432Z,85.88
2023-02-18T00:21:41.275Z,86.07
2023-02-18T00:24:12.835Z,86.22
2023-02-18T00:26:41.687Z,86.61
2023-02-18T00:29:10.041Z,87.00
2023-02-18T00:31:39.845Z,87.08
2023-02-18T00:34:08.394Z,87.37
2023-02-18T00:36:36.746Z,87.36
2023-02-18T00:39:07.788Z,86.88
2023-02-18T00:41:36.604Z,86.77
2023-02-18T00:44:06.396Z,87.05
2023-02-18T00:46:36.159Z,86.84
2023-02-18T00:49:05.016Z,86.50
2023-02-18T00:51:33.611Z,86.85
2023-02-18T00:54:02.185Z,86.85
2023-02-18T00:56:30.030Z,86.97
2023-02-18T00:58:58.014Z,87.25
2023-02-18T01:01:28.521Z,87.45
2023-02-18T01:03:56.763Z,88.04
2023-02-18T01:06:24.974Z,88.30
2023-02-18T01:08:53.069Z,88.75
2023-02-18T01:11:22.689Z,89.16
2023-02-18T01:13:51.001Z,89.11
2023-02-18T01:16:19.669Z,89.19
2023-02-18T01:18:47.870Z,89.74
2023-02-18T01:21:16.538Z,89.99
2023-02-18T01:23:44.790Z,90.11
2023-02-18T01:26:12.728Z,90.26
2023-02-18T01:28:41.683Z,90.58
2023-02-18T01:31:12.645Z,90.63
2023-02-18T01:33:41.474Z,90.98
2023-02-18T01:36:12.721Z,91.11
2023-02-18T01:38:40.812Z,91.09
2023-02-18T01:41:09.701Z,91.10
2023-02-18T01:43:38.364Z,91.07
2023-02-18T01:46:22.155Z,90.99
2023-02-18T01:49:00.315Z,91.19
2023-02-18T01:51:32.374Z,91.48
2023-02-18T01:54:09.447Z,91.48
2023-02-18T01:56:44.785Z,91.62
2023-02-18T01:59:16.566Z,92.12
2023-02-18T02:01:46.916Z,92.47
2023-02-18T02:04:15.284Z,92.74
2023-02-18T02:06:43.662Z,92.80
2023-02-18T02:09:16.240Z,92.70
2023-02-18T02:11:53.317Z,92.85
2023-02-18T02:14:52.428Z,92.78
2023-02-18T02:17:57.884Z,92.96
2023-02-18T02:20:38.026Z,93.17
2023-02-18T02:23:09.073Z,93.15
2023-02-18T02:26:26.606Z,93.21
2023-02-18T02:29:16.894Z,92.92
2023-02-18T02:32:22.752Z,93.00
2023-02-18T02:35:01.175Z,93.36
2023-02-18T02:37:29.245Z,93.08
2023-02-18T02:40:27.765Z,93.35
2023-02-18T02:43:08.284Z,93.13
2023-02-18T02:45:59.276Z,93.03
2023-02-18T02:48:46.258Z,93.12
2023-02-18T02:51:39.928Z,92.98
2023-02-18T02:54:15.865Z,93.03
2023-02-18T02:56:44.344Z,92.98
2023-02-18T02:59:19.230Z,93.07
2023-02-18T03:02:18.655Z,92.91
2023-02-18T03:05:10.702Z,93.10
2023-02-18T03:07:57.123Z,93.07
2023-02-18T03:10:47.932Z,93.11
2023-02-18T03:13:38.005Z,93.18
2023-02-18T03:16:18.538Z,93.34
2023-02-18T03:19:07.843Z,93.57
2023-02-18T03:21:51.764Z,93.35
2023-02-18T03:24:27.109Z,93.31
2023-02-18T03:27:01.234Z,93.66
2023-02-18T03:29:30.646Z,93.69
2023-02-18T03:32:05.217Z,93.78
2023-02-18T03:34:41.593Z,94.21
2023-02-18T03:37:10.891Z,94.42
2023-02-18T03:39:43.421Z,94.39
2023-02-18T03:42:11.906Z,94.56
2023-02-18T03:44:40.037Z,94.68
2023-02-18T03:47:08.768Z,95.08
2023-02-18T03:49:36.770Z,94.89
2023-02-18T03:52:05.112Z,94.98
2023-02-18T03:54:32.914Z,95.10
2023-02-18T03:57:02.195Z,94.97
2023-02-18T03:59:30.263Z,94.99
2023-02-18T04:01:58.637Z,95.33
2023-02-18T04:04:26.933Z,95.27
2023-02-18T04:06:55.289Z,95.26
2023-02-18T04:09:23.148Z,95.61
2023-02-18T04:11:51.216Z,95.55
2023-02-18T04:14:19.346Z,95.72
2023-02-18T04:16:47.560Z,95.70
2023-02-18T04:19:15.950Z,95.68
2023-02-18T04:21:44.055Z,95.82
2023-02-18T04:24:11.994Z,95.51
2023-02-18T04:26:40.048Z,95.60
2023-02-18T04:29:08.249Z,95.69
2023-02-18T04:31:36.326Z,95.37
2023-02-18T04:34:04.649Z,95.13
2023-02-18T04:36:32.870Z,95.07
2023-02-18T04:39:00.716Z,95.18
2023-02-18T04:41:28.762Z,95.52
2023-02-18T04:43:56.782Z,95.46
2023-02-18T04:46:25.245Z,95.48
2023-02-18T04:48:53.556Z,95.45
2023-02-18T04:51:21.859Z,95.53
2023-02-18T04:53:49.891Z,95.55
2023-02-18T04:56:18.070Z,95.64
2023-02-18T04:58:45.972Z,95.80
2023-02-18T05:01:14.344Z,95.97
2023-02-18T05:03:42.258Z,96.02
2023-02-18T05:06:10.604Z,96.18
2023-02-18T05:08:38.858Z,96.37
2023-02-18T05:11:10.117Z,96.50
2023-02-18T05:13:38.379Z,96.52
2023-02-18T05:16:06.928Z,96.28
2023-02-18T05:18:35.132Z,96.62
2023-02-18T05:21:03.074Z,96.81
2023-02-18T05:23:31.271Z,96.89
2023-02-18T05:25:59.110Z,96.95
2023-02-18T05:28:27.631Z,96.97
2023-02-18T05:30:55.964Z,97.40
2023-02-18T05:33:24.297Z,97.54
2023-02-18T05:35:52.359Z,97.72
2023-02-18T05:38:20.637Z,97.84
2023-02-18T05:40:49.523Z,97.99
2023-02-18T05:43:17.803Z,98.06
2023-02-18T05:45:45.877Z,98.69
2023-02-18T05:48:14.049Z,98.70
2023-02-18T05:50:42.326Z,98.89
2023-02-18T05:53:11.020Z,99.60
2023-02-18T05:55:39.431Z,99.94
2023-02-18T05:58:08.300Z,100.00
2023-02-18T06:00:36.457Z,100.00
2023-02-18T06:03:04.548Z,100.00
2023-02-18T06:05:32.606Z,100.00
2023-02-18T06:08:00.783Z,100.00
2023-02-18T06:10:29.062Z,100.00
2023-02-18T06:12:57.135Z,100.00
2023-02-18T06:15:25.068Z,100.00
2023-02-18T06:17:53.269Z,100.00
2023-02-18T06:20:21.439Z,100.00
2023-02-18T06:22:49.302Z,99.97
2023-02-18T06:25:17.269Z,99.68
2023-02-18T06:27:45.084Z,99.52
2023-02-18T06:30:13.257Z,98.97
2023-02-18T06:32:41.439Z,98.69
2023-02-18T06:35:09.502Z,98.35
2023-02-18T06:37:37.508Z,98.10
2023-02-18T06:40:06.948Z,97.93
2023-02-18T06:42:34.830Z,97.48
2023-02-18T06:45:02.926Z,97.36
2023-02-18T06:47:30.973Z,97.41
2023-02-18T06:49:58.926Z,97.20
2023-02-18T06:52:26.916Z,97.14
2023-02-18T06:54:54.961Z,96.91
2023-02-18T06:57:22.936Z,96.81
2023-02-18T06:59:50.842Z,96.62
2023-02-18T07:02:18.761Z,96.53
2023-02-18T07:04:46.738Z,96.43
2023-02-18T07:07:14.760Z,96.07
2023-02-18T07:09:42.705Z,96.34
2023-02-18T07:12:10.500Z,95.92
2023-02-18T07:14:38.390Z,95.75
2023-02-18T07:17:06.448Z,95.40
2023-02-18T07:19:34.550Z,95.05
2023-02-18T07:22:02.372Z,95.14
2023-02-18T07:24:30.321Z,94.66
2023-02-18T07:26:58.321Z,94.42
2023-02-18T07:29:26.285Z,94.02
2023-02-18T07:31:54.553Z,93.85
2023-02-18T07:34:22.661Z,93.60
2023-02-18T07:36:50.718Z,93.51
2023-02-18T07:39:20.788Z,93.48
2023-02-18T07:41:48.816Z,93.56
2023-02-18T07:44:17.177Z,93.28
2023-02-18T07:46:47.305Z,93.12
2023-02-18T07:49:16.251Z,92.69
2023-02-18T07:51:47.695Z,92.58
2023-02-18T07:54:16.378Z,91.86
2023-02-18T07:56:45.285Z,91.78
2023-02-18T07:59:14.183Z,91.35
2023-02-18T08:01:44.052Z,91.05
2023-02-18T08:04:13.075Z,90.80
2023-02-18T08:06:44.266Z,90.49
2023-02-18T08:09:13.835Z,90.28
2023-02-18T08:11:41.857Z,90.44
2023-02-18T08:14:09.989Z,90.00
2023-02-18T08:16:38.068Z,89.59
2023-02-18T08:19:06.098Z,89.13
2023-02-18T08:21:34.300Z,88.32
2023-02-18T08:24:02.289Z,87.87
2023-02-18T08:26:30.296Z,88.53
2023-02-18T08:28:58.287Z,87.48
2023-02-18T08:31:29.544Z,86.38
2023-02-18T08:33:59.168Z,86.75
2023-02-18T08:36:28.421Z,86.19
2023-02-18T08:38:57.693Z,85.33
2023-02-18T08:41:25.656Z,84.81
2023-02-18T08:43:53.922Z,84.65
2023-02-18T08:46:31.449Z,84.83
2023-02-18T08:49:05.742Z,83.88
2023-02-18T08:51:34.149Z,84.14
2023-02-18T08:54:02.248Z,83.77
2023-02-18T08:56:31.724Z,82.23
2023-02-18T08:58:59.797Z,81.98
2023-02-18T09:01:27.713Z,80.06
2023-02-18T09:03:56.189Z,79.64
2023-02-18T09:06:24.619Z,79.46
2023-02-18T09:08:52.918Z,79.00
2023-02-18T09:11:21.110Z,77.09
2023-02-18T09:13:49.056Z,76.80
2023-02-18T09:16:18.917Z,76.07
2023-02-18T09:18:48.314Z,74.24
2023-02-18T09:21:19.232Z,73.99
2023-02-18T09:23:47.071Z,72.89
2023-02-18T09:26:17.052Z,71.97
2023-02-18T09:28:45.044Z,70.97
2023-02-18T09:31:16.601Z,70.72
2023-02-18T09:33:48.594Z,70.18
2023-02-18T09:36:17.867Z,70.01
2023-02-18T09:38:46.593Z,69.51
2023-02-18T09:41:43.349Z,68.82
2023-02-18T09:44:26.068Z,68.98
2023-02-18T09:47:02.572Z,68.88
2023-02-18T09:49:35.050Z,68.63
2023-02-18T09:52:24.535Z,67.82
2023-02-18T09:54:53.107Z,67.46
2023-02-18T09:57:48.985Z,67.20
2023-02-18T10:00:27.264Z,66.43
2023-02-18T10:02:58.532Z,66.43
2023-02-18T10:05:29.840Z,66.69
2023-02-18T10:08:10.184Z,66.16
2023-02-18T10:10:41.991Z,64.96
2023-02-18T10:13:16.678Z,64.51
2023-02-18T10:15:45.904Z,63.87
2023-02-18T10:18:16.988Z,63.42
2023-02-18T10:20:45.337Z,64.11
2023-02-18T10:23:15.857Z,63.98
2023-02-18T10:25:46.773Z,64.81
2023-02-18T10:28:17.193Z,65.22
2023-02-18T10:31:11.456Z,65.25
2023-02-18T10:33:52.165Z,66.20
2023-02-18T10:36:56.118Z,65.68
2023-02-18T10:39:36.436Z,66.09
2023-02-18T10:42:04.408Z,66.01
2023-02-18T10:44:44.658Z,65.73
2023-02-18T10:47:30.581Z,65.09
2023-02-18T10:50:04.754Z,65.93
2023-02-18T10:52:43.707Z,65.95
2023-02-18T10:55:18.654Z,66.33
2023-02-18T10:57:55.704Z,66.42
2023-02-18T11:00:27.345Z,66.83
2023-02-18T11:03:18.053Z,66.63
2023-02-18T11:05:48.276Z,66.86
2023-02-18T11:08:43.440Z,66.94
2023-02-18T11:11:39.187Z,67.20
2023-02-18T11:14:13.215Z,67.53
2023-02-18T11:16:44.426Z,67.47
2023-02-18T11:19:32.733Z,67.60
2023-02-18T11:22:33.799Z,68.31
2023-02-18T11:25:18.463Z,69.21
2023-02-18T11:27:51.219Z,70.02
2023-02-18T11:30:25.900Z,70.13
2023-02-18T11:33:18.556Z,71.24
2023-02-18T11:35:51.719Z,73.52
2023-02-18T11:38:22.774Z,75.72
2023-02-18T11:41:15.026Z,76.02
2023-02-18T11:43:46.533Z,77.41
2023-02-18T11:46:21.535Z,79.36
2023-02-18T11:48:50.833Z,80.46
2023-02-18T11:51:23.355Z,81.17
2023-02-18T11:53:54.122Z,82.47
2023-02-18T11:56:21.987Z,83.20
2023-02-18T11:58:51.925Z,85.04
2023-02-18T12:01:36.536Z,86.04
2023-02-18T12:04:13.392Z,87.03
2023-02-18T12:06:58.768Z,88.51
2023-02-18T12:09:38.218Z,90.10
2023-02-18T12:12:31.083Z,90.59
2023-02-18T12:14:59.975Z,92.73
2023-02-18T12:17:46.364Z,92.62
2023-02-18T12:20:46.324Z,94.10
2023-02-18T12:23:35.252Z,96.46
2023-02-18T12:26:06.145Z,97.69
2023-02-18T12:29:10.966Z,99.52
2023-02-18T12:32:06.665Z,98.78
2023-02-18T12:34:46.859Z,100.00
2023-02-18T12:37:50.634Z,100.00
2023-02-18T12:40:46.334Z,100.00
2023-02-18T12:43:26.183Z,100.00
2023-02-18T12:46:21.741Z,100.00
2023-02-18T12:49:30.060Z,100.00
2023-02-18T12:52:20.041Z,100.00
2023-02-18T12:55:03.532Z,100.00
2023-02-18T12:57:48.716Z,100.00
2023-02-18T13:00:41.274Z,100.00
2023-02-18T13:03:41.785Z,100.00
2023-02-18T13:06:39.542Z,100.00
2023-02-18T13:09:36.718Z,100.00
2023-02-18T13:12:33.327Z,100.00
2023-02-18T13:15:23.521Z,100.00
2023-02-18T13:17:56.967Z,100.00
2023-02-18T13:20:40.373Z,100.00
2023-02-18T13:23:32.984Z,100.00
2023-02-18T13:26:04.677Z,100.00
2023-02-18T13:28:42.883Z,100.00
2023-02-18T13:31:24.368Z,100.00
2023-02-18T13:34:12.972Z,100.00
2023-02-18T13:36:52.244Z,100.00
2023-02-18T13:39:23.439Z,100.00
2023-02-18T13:42:10.025Z,100.00
2023-02-18T13:45:03.617Z,100.00
2023-02-18T13:47:43.535Z,100.00
2023-02-18T13:50:39.137Z,100.00
2023-02-18T13:53:06.990Z,100.00
2023-02-18T13:55:53.808Z,100.00
2023-02-18T13:58:27.692Z,100.00
2023-02-18T14:01:02.710Z,100.00
2023-02-18T14:03:30.700Z,100.00
2023-02-18T14:05:58.628Z,100.00
2023-02-18T14:08:37.369Z,100.00
2023-02-18T14:11:11.274Z,100.00
2023-02-18T14:14:01.339Z,100.00
2023-02-18T14:17:07.912Z,100.00
2023-02-18T14:19:35.862Z,100.00
2023-02-18T14:22:31.807Z,100.00
2023-02-18T14:25:05.119Z,100.00
2023-02-18T14:27:32.931Z,100.00
2023-02-18T14:30:07.497Z,100.00
2023-02-18T14:32:40.275Z,100.00
2023-02-18T14:35:42.767Z,100.00
2023-02-18T14:38:32.394Z,100.00
2023-02-18T14:41:25.742Z,100.00
2023-02-18T14:44:19.676Z,100.00
2023-02-18T14:47:14.372Z,100.00
2023-02-18T14:49:52.069Z,100.00
2023-02-18T14:52:31.964Z,100.00
2023-02-18T14:55:06.282Z,100.00
2023-02-18T14:57:44.715Z,100.00
2023-02-18T15:00:17.324Z,100.00
2023-02-18T15:02:49.944Z,100.00
2023-02-18T15:05:24.992Z,100.00
2023-02-18T15:07:57.909Z,100.00
2023-02-18T15:10:42.949Z,100.00
2023-02-18T15:13:44.287Z,100.00
2023-02-18T15:16:33.229Z,100.00
2023-02-18T15:19:13.372Z,100.00
2023-02-18T15:21:45.778Z,100.00
2023-02-18T15:24:20.562Z,100.00
2023-02-18T15:26:52.122Z,100.00
2023-02-18T15:29:24.455Z,100.00
2023-02-18T15:31:54.635Z,100.00
2023-02-18T15:34:37.380Z,100.00
2023-02-18T15:37:08.212Z,100.00
2023-02-18T15:39:38.751Z,100.00
2023-02-18T15:42:28.056Z,100.00
2023-02-18T15:45:15.027Z,100.00
2023-02-18T15:47:48.639Z,100.00
2023-02-18T15:50:26.595Z,100.00
2023-02-18T15:52:58.232Z,100.00
2023-02-18T15:55:34.454Z,100.00
2023-02-18T15:58:21.496Z,100.00
2023-02-18T16:00:56.664Z,100.00
2023-02-18T16:03:28.728Z,100.00
2023-02-18T16:06:13.446Z,100.00
2023-02-18T16:08:41.319Z,100.00
2023-02-18T16:11:13.520Z,100.00
2023-02-18T16:13:48.469Z,100.00
2023-02-18T16:16:25.126Z,100.00
2023-02-18T16:18:53.346Z,100.00
2023-02-18T16:21:21.165Z,100.00
2023-02-18T16:23:58.730Z,100.00
2023-02-18T16:26:38.624Z,100.00
2023-02-18T16:29:16.580Z,100.00
2023-02-18T16:31:44.770Z,100.00
2023-02-18T16:34:13.454Z,100.00
2023-02-18T16:37:01.720Z,100.00
2023-02-18T16:39:34.132Z,100.00
2023-02-18T16:42:02.315Z,100.00
2023-02-18T16:44:32.602Z,100.00
2023-02-18T16:47:01.212Z,100.00
2023-02-18T16:49:30.206Z,100.00
2023-02-18T16:52:01.090Z,100.00
2023-02-18T16:54:29.244Z,100.00
2023-02-18T16:56:57.072Z,100.00
2023-02-18T16:59:25.874Z,100.00
2023-02-18T17:01:53.963Z,100.00
2023-02-18T17:04:23.510Z,100.00
2023-02-18T17:06:51.612Z,100.00
2023-02-18T17:09:22.556Z,100.00
2023-02-18T17:11:53.750Z,100.00
2023-02-18T17:14:23.409Z,100.00
2023-02-18T17:16:53.645Z,100.00
2023-02-18T17:19:21.725Z,100.00
2023-02-18T17:21:50.309Z,100.00
2023-02-18T17:24:19.543Z,100.00
2023-02-18T17:26:47.478Z,100.00
2023-02-18T17:29:15.645Z,100.00
2023-02-18T17:31:47.214Z,100.00
2023-02-18T17:34:26.678Z,100.00
2023-02-18T17:36:54.920Z,100.00
2023-02-18T17:39:24.542Z,100.00
2023-02-18T17:41:52.644Z,100.00
2023-02-18T17:44:22.580Z,100.00
2023-02-18T17:46:50.565Z,100.00
2023-02-18T17:49:18.630Z,100.00
2023-02-18T17:51:46.727Z,100.00
2023-02-18T17:54:17.983Z,100.00
2023-02-18T17:56:46.577Z,100.00
2023-02-18T17:59:14.557Z,100.00
2023-02-18T18:01:43.394Z,100.00
2023-02-18T18:04:15.021Z,100.00
2023-02-18T18:06:43.271Z,100.00
2023-02-18T18:09:11.223Z,100.00
2023-02-18T18:11:39.151Z,100.00
2023-02-18T18:14:07.258Z,100.00
2023-02-18T18:16:35.250Z,100.00
2023-02-18T18:19:03.273Z,100.00
2023-02-18T18:21:34.721Z,100.00
2023-02-18T18:24:03.676Z,100.00
2023-02-18T18:26:31.798Z,100.00
2023-02-18T18:28:59.869Z,100.00
2023-02-18T18:31:27.965Z,100.00
2023-02-18T18:33:57.310Z,100.00
2023-02-18T18:36:25.365Z,100.00
2023-02-18T18:38:53.468Z,100.00
2023-02-18T18:41:22.681Z,100.00
2023-02-18T18:43:50.917Z,100.00
2023-02-18T18:46:19.143Z,100.00
2023-02-18T18:48:47.125Z,100.00
2023-02-18T18:51:18.741Z,100.00
2023-02-18T18:53:47.450Z,100.00
2023-02-18T18:56:15.512Z,100.00
2023-02-18T18:58:43.576Z,100.00
2023-02-18T19:01:18.020Z,100.00
2023-02-18T19:03:47.321Z,100.00
2023-02-18T19:06:17.198Z,100.00
2023-02-18T19:08:45.703Z,100.00
2023-02-18T19:11:14.968Z,100.00
2023-02-18T19:13:43.053Z,100.00
2023-02-18T19:16:35.160Z,100.00
2023-02-18T19:19:03.225Z,100.00
2023-02-18T19:21:31.812Z,100.00
2023-02-18T19:24:00.032Z,100.00
2023-02-18T19:26:28.255Z,100.00
2023-02-18T19:28:56.372Z,100.00
2023-02-18T19:31:24.707Z,100.00
2023-02-18T19:33:53.160Z,100.00
2023-02-18T19:36:21.064Z,100.00
2023-02-18T19:38:49.992Z,100.00
2023-02-18T19:41:17.982Z,100.00
2023-02-18T19:43:49.029Z,100.00
2023-02-18T19:46:18.748Z,100.00
2023-02-18T19:48:52.474Z,100.00
2023-02-18T19:51:21.439Z,100.00
2023-02-18T19:53:49.552Z,100.00
2023-02-18T19:56:17.815Z,100.00
2023-02-18T19:58:45.744Z,100.00
2023-02-18T20:01:15.709Z,100.00
2023-02-18T20:03:43.975Z,100.00
2023-02-18T20:06:19.609Z,100.00
2023-02-18T20:08:48.420Z,100.00
2023-02-18T20:11:17.051Z,100.00
2023-02-18T20:13:44.933Z,100.00
2023-02-18T20:16:12.963Z,100.00
2023-02-18T20:18:40.895Z,100.00
2023-02-18T20:21:12.418Z,100.00
2023-02-18T20:23:41.405Z,100.00
2023-02-18T20:26:12.174Z,100.00
2023-02-18T20:28:41.212Z,100.00
2023-02-18T20:31:11.860Z,100.00
2023-02-18T20:33:42.423Z,100.00
2023-02-18T20:36:12.746Z,100.00
2023-02-18T20:38:41.542Z,100.00
2023-02-18T20:41:14.710Z,100.00
2023-02-18T20:43:42.984Z,100.00
2023-02-18T20:46:14.163Z,100.00
2023-02-18T20:48:42.873Z,100.00
2023-02-18T20:51:14.238Z,100.00
2023-02-18T20:53:43.617Z,100.00
2023-02-18T20:56:12.370Z,100.00
2023-02-18T20:58:41.002Z,100.00
2023-02-18T21:01:12.028Z,100.00
2023-02-18T21:03:41.401Z,100.00
2023-02-18T21:06:14.021Z,100.00
2023-02-18T21:08:45.296Z,100.00
2023-02-18T21:11:16.977Z,100.00
2023-02-18T21:13:47.355Z,100.00
2023-02-18T21:16:16.849Z,100.00
2023-02-18T21:18:45.074Z,100.00
2023-02-18T21:21:13.554Z,100.00
2023-02-18T21:23:41.719Z,100.00
2023-02-18T21:26:16.124Z,100.00
2023-02-18T21:28:48.205Z,100.00
2023-02-18T21:31:21.418Z,100.00
2023-02-18T21:33:50.451Z,100.00
2023-02-18T21:36:19.490Z,100.00
2023-02-18T21:38:58.945Z,100.00
2023-02-18T21:41:27.649Z,100.00
2023-02-18T21:43:56.224Z,100.00
2023-02-18T21:46:27.072Z,100.00
2023-02-18T21:49:02.299Z,100.00
2023-02-18T21:51:49.953Z,100.00
2023-02-18T21:54:42.103Z,100.00
2023-02-18T21:57:13.417Z,100.00
2023-02-18T21:59:41.690Z,100.00
2023-02-18T22:02:16.850Z,100.00
2023-02-18T22:04:45.688Z,100.00
2023-02-18T22:07:14.317Z,100.00
2023-02-18T22:09:42.496Z,100.00
2023-02-18T22:12:11.946Z,100.00
2023-02-18T22:14:39.997Z,100.00
2023-02-18T22:17:08.453Z,100.00
2023-02-18T22:19:36.582Z,100.00
2023-02-18T22:22:04.735Z,100.00
2023-02-18T22:24:33.314Z,100.00
2023-02-18T22:27:01.579Z,100.00
2023-02-18T22:29:33.133Z,100.00
2023-02-18T22:32:01.194Z,100.00
2023-02-18T22:34:29.492Z,100.00
2023-02-18T22:36:57.543Z,100.00
2023-02-18T22:39:26.533Z,100.00
2023-02-18T22:41:54.583Z,100.00
2023-02-18T22:44:24.220Z,100.00
2023-02-18T22:46:56.271Z,100.00
2023-02-18T22:49:25.256Z,100.00
2023-02-18T22:51:54.996Z,100.00
2023-02-18T22:54:23.009Z,100.00
2023-02-18T22:56:50.907Z,100.00
2023-02-18T22:59:19.660Z,100.00
2023-02-18T23:01:49.714Z,100.00
2023-02-18T23:04:20.258Z,100.00
2023-02-18T23:06:49.707Z,100.00
2023-02-18T23:09:23.959Z,100.00
2023-02-18T23:11:57.633Z,100.00
2023-02-18T23:14:28.266Z,100.00
2023-02-18T23:17:17.906Z,100.00
2023-02-18T23:19:48.966Z,100.00
2023-02-18T23:22:28.379Z,100.00
2023-02-18T23:24:57.213Z,100.00
2023-02-18T23:27:26.073Z,100.00
2023-02-18T23:29:55.172Z,100.00
2023-02-18T23:32:23.344Z,100.00
2023-02-18T23:34:51.897Z,100.00
2023-02-18T23:37:40.623Z,100.00
2023-02-18T23:40:09.840Z,100.00
2023-02-18T23:42:37.752Z,100.00
2023-02-18T23:45:05.958Z,100.00
2023-02-18T23:47:33.846Z,100.00
2023-02-18T23:50:01.750Z,100.00
2023-02-18T23:52:29.747Z,100.00
2023-02-18T23:54:57.733Z,100.00
2023-02-18T23:57:25.811Z,100.00
2023-02-18T23:59:53.718Z,100.00
